Time;durP1;ratioP1;P1;durP2;ratioP2;P2;SDS_P1;SDS_P2;PMS_P1;PMS_P2;Temp;Humidity;BMP_temperature;BMP_pressure;BME280_temperature;BME280_humidity;BME280_pressure;Samples;Min_cycle;Max_cycle;Signal;HPM_P1;HPM_P2
2021/03/09 00:00:59;;;;;;;48.93;20.03;;;;;;;;;;4406460;32;20138;-78
2021/03/09 00:03:32;;;;;;;43.40;17.03;;;;;;;;;;4391675;32;20150;-78
2021/03/09 00:06:04;;;;;;;41.00;17.70;;;;;;;;;;4391198;32;20154;-78
2021/03/09 00:08:56;;;;;;;45.97;18.37;;;;;;;;;;4385234;32;20212;-80
2021/03/09 00:11:21;;;;;;;45.27;18.57;;;;;;;;;;4376273;32;20163;-78
2021/03/09 00:13:47;;;;;;;45.53;18.23;;;;;;;;;;4376294;32;20201;-78
2021/03/09 00:16:15;;;;;;;40.87;17.17;;;;;;;;;;4376385;32;20185;-78
2021/03/09 00:18:40;;;;;;;43.57;18.47;;;;;;;;;;4376094;32;20218;-78
2021/03/09 00:21:08;;;;;;;45.90;18.53;;;;;;;;;;4376639;32;20151;-78
2021/03/09 00:23:34;;;;;;;47.73;19.53;;;;;;;;;;4373848;32;20187;-78
2021/03/09 00:26:08;;;;;;;47.03;18.17;;;;;;;;;;4361309;32;20155;-78
2021/03/09 00:28:33;;;;;;;47.43;18.33;;;;;;;;;;4361521;32;20150;-78
2021/03/09 00:31:01;;;;;;;48.90;19.63;;;;;;;;;;4361194;32;20224;-78
2021/03/09 00:33:28;;;;;;;50.73;20.43;;;;;;;;;;4361236;32;20150;-77
2021/03/09 00:36:03;;;;;;;45.50;18.67;;;;;;;;;;4361348;32;20151;-78
2021/03/09 00:38:49;;;;;;;44.57;19.20;;;;;;;;;;4375123;32;20260;-78
2021/03/09 00:41:44;;;;;;;52.23;20.50;;;;;;;;;;4361762;32;20154;-78
2021/03/09 00:44:50;;;;;;;56.07;20.43;;;;;;;;;;4381565;32;20276;-78
2021/03/09 00:47:22;;;;;;;52.90;21.37;;;;;;;;;;4389101;32;20181;-78
2021/03/09 00:50:09;;;;;;;51.77;22.00;;;;;;;;;;4376320;32;20173;-78
2021/03/09 00:52:34;;;;;;;51.47;21.30;;;;;;;;;;4389009;32;20158;-78
2021/03/09 00:55:32;;;;;;;52.83;22.37;;;;;;;;;;4375581;32;20231;-78
2021/03/09 00:57:58;;;;;;;53.13;21.90;;;;;;;;;;4376111;32;20181;-77
2021/03/09 01:00:27;;;;;;;54.10;22.50;;;;;;;;;;4375869;32;20185;-77
2021/03/09 01:03:15;;;;;;;56.47;23.03;;;;;;;;;;4375766;32;20158;-77
2021/03/09 01:05:51;;;;;;;53.43;21.90;;;;;;;;;;4375998;32;20150;-77
2021/03/09 01:08:22;;;;;;;53.93;22.70;;;;;;;;;;4376306;32;20193;-77
2021/03/09 01:11:10;;;;;;;58.83;22.27;;;;;;;;;;4376667;32;20205;-77
2021/03/09 01:13:46;;;;;;;56.43;22.83;;;;;;;;;;4373127;32;20233;-77
2021/03/09 01:16:23;;;;;;;71.67;25.13;;;;;;;;;;4377549;32;20149;-77
2021/03/09 01:18:52;;;;;;;64.53;25.17;;;;;;;;;;4379477;32;20193;-77
2021/03/09 01:21:37;;;;;;;63.10;25.70;;;;;;;;;;4378769;32;20154;-77
2021/03/09 01:24:08;;;;;;;63.03;25.50;;;;;;;;;;4393794;32;20154;-77
2021/03/09 01:26:51;;;;;;;73.50;27.00;;;;;;;;;;4393684;32;20184;-77
2021/03/09 01:29:35;;;;;;;69.30;26.43;;;;;;;;;;4393820;32;20538;-77
2021/03/09 01:32:28;;;;;;;64.80;25.33;;;;;;;;;;4393722;32;20158;-77
2021/03/09 01:35:09;;;;;;;;;;;;;;;;;;;;;
2021/03/09 01:37:57;;;;;;;71.70;27.47;;;;;;;;;;4408033;32;20161;-77
2021/03/09 01:40:45;;;;;;;69.83;28.50;;;;;;;;;;4391502;32;20180;-77
2021/03/09 01:43:13;;;;;;;62.87;25.73;;;;;;;;;;4375302;32;20151;-77
2021/03/09 01:46:19;;;;;;;;;;;;;;;;;;;;;
2021/03/09 01:49:07;;;;;;;70.13;27.30;;;;;;;;;;4407791;32;20134;-77
2021/03/09 01:51:39;;;;;;;75.07;28.53;;;;;;;;;;4407148;32;20154;-77
2021/03/09 01:54:27;;;;;;;;;;;;;;;;;;;;;
2021/03/09 01:57:12;;;;;;;79.17;30.70;;;;;;;;;;4407925;32;20165;-77
2021/03/09 02:00:09;;;;;;;77.47;29.07;;;;;;;;;;4391007;32;20177;-77
2021/03/09 02:02:57;;;;;;;81.63;30.00;;;;;;;;;;4393943;32;20186;-77
2021/03/09 02:08:52;;;;;;;82.30;30.30;;;;;;;;;;4407048;32;20265;-79
2021/03/09 02:15:08;;;;;;;;;;;;;;;;;;;;;
2021/03/09 02:18:02;;;;;;;82.83;31.43;;;;;;;;;;4374746;32;20135;-78
2021/03/09 02:20:49;;;;;;;79.47;30.07;;;;;;;;;;4383440;32;20165;-78
2021/03/09 02:23:37;;;;;;;;;;;;;;;;;;;;;
2021/03/09 02:26:23;;;;;;;88.60;31.83;;;;;;;;;;4407560;32;20157;-78
2021/03/09 02:29:21;;;;;;;;;;;;;;;;;;;;;
2021/03/09 02:32:14;;;;;;;85.17;32.20;;;;;;;;;;4344917;33;20159;-79
2021/03/09 02:35:06;;;;;;;84.67;34.23;;;;;;;;;;4337853;33;20488;-79
2021/03/09 02:40:51;;;;;;;;;;;;;;;;;;;;;
2021/03/09 02:43:26;;;;;;;87.73;33.20;;;;;;;;;;4345039;33;20154;-79
2021/03/09 02:45:53;;;;;;;87.50;34.13;;;;;;;;;;4353873;32;20173;-79
2021/03/09 02:48:44;;;;;;;104.73;35.23;;;;;;;;;;4391383;32;20167;-78
2021/03/09 02:51:27;;;;;;;93.27;34.93;;;;;;;;;;4385197;32;20151;-79
2021/03/09 02:54:05;;;;;;;84.90;34.33;;;;;;;;;;4391019;32;20150;-78
2021/03/09 02:57:10;;;;;;;;;;;;;;;;;;;;;
2021/03/09 02:59:46;;;;;;;95.47;35.97;;;;;;;;;;4391839;32;20147;-79
2021/03/09 03:02:26;;;;;;;88.27;33.57;;;;;;;;;;4377418;32;20212;-78
2021/03/09 03:05:03;;;;;;;93.00;34.70;;;;;;;;;;4389904;32;20260;-79
2021/03/09 03:07:35;;;;;;;88.37;35.07;;;;;;;;;;4390829;32;20188;-79
2021/03/09 03:10:35;;;;;;;83.10;33.47;;;;;;;;;;4389139;32;20181;-78
2021/03/09 03:13:10;;;;;;;97.83;36.87;;;;;;;;;;4389616;32;20197;-78
2021/03/09 03:16:24;;;;;;;101.97;37.60;;;;;;;;;;4389849;32;20154;-78
2021/03/09 03:18:40;;;;;;;104.90;38.10;;;;;;;;;;4387769;32;20171;-78
2021/03/09 03:21:18;;;;;;;97.83;36.93;;;;;;;;;;4389965;32;20170;-78
2021/03/09 03:24:24;;;;;;;95.77;34.87;;;;;;;;;;4389607;32;20169;-78
2021/03/09 03:27:46;;;;;;;;;;;;;;;;;;;;;
2021/03/09 03:29:50;;;;;;;91.53;35.43;;;;;;;;;;4385531;32;20170;-78
2021/03/09 03:33:03;;;;;;;;;;;;;;;;;;;;;
2021/03/09 03:36:03;;;;;;;;;;;;;;;;;;;;;
2021/03/09 03:38:36;;;;;;;105.03;35.97;;;;;;;;;;4390239;32;20186;-78
2021/03/09 03:41:17;;;;;;;90.80;32.67;;;;;;;;;;4376365;32;20211;-78
2021/03/09 03:44:06;;;;;;;94.60;35.87;;;;;;;;;;4377393;32;20150;-78
2021/03/09 03:46:45;;;;;;;89.23;33.30;;;;;;;;;;4388533;32;20285;-77
2021/03/09 03:49:47;;;;;;;88.23;32.97;;;;;;;;;;4377211;32;20452;-78
2021/03/09 03:52:27;;;;;;;81.70;31.90;;;;;;;;;;4369298;32;20191;-78
2021/03/09 03:55:00;;;;;;;87.43;33.13;;;;;;;;;;4376751;32;20225;-77
2021/03/09 03:57:49;;;;;;;84.77;32.03;;;;;;;;;;4377146;32;20155;-78
2021/03/09 04:00:23;;;;;;;88.90;34.37;;;;;;;;;;4377040;32;20607;-78
2021/03/09 04:02:55;;;;;;;89.27;34.13;;;;;;;;;;4376679;32;20618;-78
2021/03/09 04:05:24;;;;;;;82.20;32.10;;;;;;;;;;4377005;32;20166;-77
2021/03/09 04:08:30;;;;;;;89.43;33.60;;;;;;;;;;4376775;32;20473;-78
2021/03/09 04:11:45;;;;;;;;;;;;;;;;;;;;;
2021/03/09 04:14:12;;;;;;;88.67;33.47;;;;;;;;;;4390565;32;20184;-79
2021/03/09 04:16:57;;;;;;;97.00;36.57;;;;;;;;;;4376703;32;20188;-78
2021/03/09 04:19:43;;;;;;;104.00;37.17;;;;;;;;;;4376532;32;20154;-79
2021/03/09 04:22:16;;;;;;;99.37;36.77;;;;;;;;;;4376585;32;20209;-79
2021/03/09 04:25:02;;;;;;;116.33;40.77;;;;;;;;;;4377055;32;20162;-79
2021/03/09 04:27:42;;;;;;;107.73;39.33;;;;;;;;;;4377094;32;20229;-79
2021/03/09 04:33:08;;;;;;;119.60;41.23;;;;;;;;;;4381640;32;20162;-77
2021/03/09 04:35:45;;;;;;;111.67;40.27;;;;;;;;;;4376688;32;20211;-77
2021/03/09 04:38:23;;;;;;;124.10;44.57;;;;;;;;;;4376110;32;20539;-77
2021/03/09 04:41:30;;;;;;;117.97;41.37;;;;;;;;;;4376065;32;20220;-77
2021/03/09 04:44:04;;;;;;;98.60;39.33;;;;;;;;;;4331173;33;20242;-77
2021/03/09 04:46:32;;;;;;;111.67;40.27;;;;;;;;;;4352545;32;20174;-77
2021/03/09 04:49:24;;;;;;;122.00;41.23;;;;;;;;;;4407724;32;20166;-76
2021/03/09 04:52:21;;;;;;;107.97;39.67;;;;;;;;;;4372600;32;20142;-76
2021/03/09 04:55:07;;;;;;;105.23;38.90;;;;;;;;;;4360231;32;20177;-77
2021/03/09 04:58:06;;;;;;;110.10;39.90;;;;;;;;;;4357201;32;20162;-77
2021/03/09 05:03:15;;;;;;;99.43;38.13;;;;;;;;;;4373084;32;20213;-77
2021/03/09 05:05:50;;;;;;;100.53;38.20;;;;;;;;;;4360209;32;20186;-78
2021/03/09 05:08:15;;;;;;;116.53;39.10;;;;;;;;;;4375451;32;20151;-78
2021/03/09 05:10:46;;;;;;;83.73;34.53;;;;;;;;;;4403504;32;20154;-78
2021/03/09 05:13:34;;;;;;;104.73;37.60;;;;;;;;;;4403675;32;20151;-78
2021/03/09 05:16:22;;;;;;;84.17;32.60;;;;;;;;;;4380673;32;20167;-78
2021/03/09 05:18:56;;;;;;;93.77;34.53;;;;;;;;;;4403699;32;20228;-78
2021/03/09 05:21:30;;;;;;;78.80;31.30;;;;;;;;;;4404222;32;20150;-78
2021/03/09 05:27:01;;;;;;;65.73;26.17;;;;;;;;;;4396054;32;20695;-79
2021/03/09 05:29:30;;;;;;;67.60;28.43;;;;;;;;;;4403629;32;20560;-79
2021/03/09 05:32:21;;;;;;;66.97;24.47;;;;;;;;;;4404822;32;20131;-78
2021/03/09 05:34:46;;;;;;;70.37;24.80;;;;;;;;;;4360172;32;20238;-77
2021/03/09 05:37:40;;;;;;;66.63;23.67;;;;;;;;;;4401896;32;20162;-77
2021/03/09 05:40:07;;;;;;;37.83;15.50;;;;;;;;;;4403637;32;20232;-78
2021/03/09 05:42:49;;;;;;;47.33;18.97;;;;;;;;;;4390521;32;20150;-78
2021/03/09 05:45:14;;;;;;;44.03;17.77;;;;;;;;;;4390883;32;20146;-75
2021/03/09 05:47:43;;;;;;;49.30;16.83;;;;;;;;;;4391300;32;20216;-78
2021/03/09 05:50:11;;;;;;;39.70;15.47;;;;;;;;;;4404627;32;20131;-77
2021/03/09 05:52:37;;;;;;;45.73;15.53;;;;;;;;;;4390529;32;20189;-78
2021/03/09 05:55:06;;;;;;;39.97;15.47;;;;;;;;;;4390649;32;20225;-78
2021/03/09 05:57:38;;;;;;;39.50;14.40;;;;;;;;;;4390500;32;20248;-79
2021/03/09 06:00:31;;;;;;;25.20;12.40;;;;;;;;;;4389926;32;20150;-78
2021/03/09 06:02:56;;;;;;;39.33;13.30;;;;;;;;;;4405488;32;20505;-75
2021/03/09 06:05:33;;;;;;;26.67;11.27;;;;;;;;;;4393537;32;20178;-77
2021/03/09 06:07:59;;;;;;;29.17;10.43;;;;;;;;;;4393444;32;20189;-77
2021/03/09 06:10:24;;;;;;;32.53;11.63;;;;;;;;;;4393480;32;20154;-79
2021/03/09 06:12:52;;;;;;;31.63;10.77;;;;;;;;;;4393042;32;20178;-76
2021/03/09 06:15:20;;;;;;;29.67;11.47;;;;;;;;;;4392939;32;20142;-78
2021/03/09 06:17:56;;;;;;;25.97;10.07;;;;;;;;;;4393368;32;20501;-76
2021/03/09 06:20:23;;;;;;;26.90;10.07;;;;;;;;;;4388780;32;20149;-77
2021/03/09 06:23:00;;;;;;;30.17;10.17;;;;;;;;;;4393759;32;20186;-78
2021/03/09 06:25:33;;;;;;;25.37;9.43;;;;;;;;;;4407135;32;20135;-76
2021/03/09 06:28:10;;;;;;;27.60;9.37;;;;;;;;;;4392897;32;20493;-75
2021/03/09 06:30:39;;;;;;;24.03;10.23;;;;;;;;;;4392981;32;20195;-77
2021/03/09 06:33:26;;;;;;;29.23;10.33;;;;;;;;;;4380770;32;20164;-77
2021/03/09 06:36:00;;;;;;;23.03;9.53;;;;;;;;;;4369297;32;20162;-77
2021/03/09 06:38:25;;;;;;;27.43;9.03;;;;;;;;;;4378420;32;20177;-78
2021/03/09 06:41:47;;;;;;;23.57;7.73;;;;;;;;;;4377614;32;20479;-78
2021/03/09 06:44:22;;;;;;;20.43;8.30;;;;;;;;;;4390626;32;20413;-77
2021/03/09 06:46:48;;;;;;;23.47;8.73;;;;;;;;;;4377364;32;20200;-77
2021/03/09 06:49:13;;;;;;;23.57;8.03;;;;;;;;;;4377530;32;20193;-76
2021/03/09 06:51:38;;;;;;;20.67;8.17;;;;;;;;;;4377463;32;20212;-77
2021/03/09 06:54:10;;;;;;;22.60;9.60;;;;;;;;;;4377781;32;20572;-75
2021/03/09 06:56:39;;;;;;;22.70;8.90;;;;;;;;;;4377542;32;20162;-78
2021/03/09 06:59:27;;;;;;;28.10;9.33;;;;;;;;;;4377285;32;20242;-77
2021/03/09 07:02:15;;;;;;;26.20;8.70;;;;;;;;;;4377560;32;20584;-78
2021/03/09 07:04:49;;;;;;;27.07;8.70;;;;;;;;;;4391620;32;20214;-77
2021/03/09 07:07:21;;;;;;;22.43;8.27;;;;;;;;;;4377590;32;20267;-76
2021/03/09 07:09:55;;;;;;;20.37;6.97;;;;;;;;;;4377264;32;20237;-76
2021/03/09 07:12:21;;;;;;;18.80;8.10;;;;;;;;;;4378312;32;20150;-78
2021/03/09 07:14:49;;;;;;;15.17;4.97;;;;;;;;;;4390585;32;20134;-74
2021/03/09 07:17:17;;;;;;;18.20;6.00;;;;;;;;;;4388385;32;20570;-77
2021/03/09 07:19:59;;;;;;;;;;;;;;;;;;;;;
2021/03/09 07:22:26;;;;;;;16.23;4.80;;;;;;;;;;4406399;32;20134;-75
2021/03/09 07:25:04;;;;;;;16.20;5.33;;;;;;;;;;4392056;32;20518;-76
2021/03/09 07:27:37;;;;;;;12.70;4.93;;;;;;;;;;4392050;32;20254;-77
2021/03/09 07:30:03;;;;;;;14.17;4.77;;;;;;;;;;4405592;32;20470;-76
2021/03/09 07:32:30;;;;;;;15.63;4.63;;;;;;;;;;4403978;32;20154;-76
2021/03/09 07:34:59;;;;;;;14.20;4.10;;;;;;;;;;4405871;32;20475;-78
2021/03/09 07:37:24;;;;;;;16.87;4.20;;;;;;;;;;4405256;32;20146;-78
2021/03/09 07:39:49;;;;;;;13.17;4.30;;;;;;;;;;4391854;32;20170;-75
2021/03/09 07:42:15;;;;;;;11.70;4.40;;;;;;;;;;4405531;32;20149;-77
2021/03/09 07:44:41;;;;;;;16.37;4.60;;;;;;;;;;4405553;32;20130;-79
2021/03/09 07:47:09;;;;;;;10.43;4.40;;;;;;;;;;4405196;32;20224;-78
2021/03/09 07:49:35;;;;;;;9.27;3.60;;;;;;;;;;4405259;32;20134;-79
2021/03/09 07:52:07;;;;;;;15.20;4.17;;;;;;;;;;4405757;32;20160;-77
2021/03/09 07:54:59;;;;;;;13.43;4.93;;;;;;;;;;4391594;32;20240;-79
2021/03/09 07:57:35;;;;;;;8.40;3.60;;;;;;;;;;4387147;32;20232;-80
2021/03/09 08:00:22;;;;;;;11.23;4.30;;;;;;;;;;4391301;32;20165;-79
2021/03/09 08:02:58;;;;;;;9.33;3.53;;;;;;;;;;4405968;32;20167;-78
2021/03/09 08:05:28;;;;;;;9.87;3.67;;;;;;;;;;4392134;32;20540;-79
2021/03/09 08:07:55;;;;;;;6.60;3.37;;;;;;;;;;4405708;32;20151;-80
2021/03/09 08:10:48;;;;;;;8.27;3.87;;;;;;;;;;4405258;32;20130;-79
2021/03/09 08:13:17;;;;;;;9.23;3.40;;;;;;;;;;4391227;32;20214;-78
2021/03/09 08:15:43;;;;;;;15.70;4.17;;;;;;;;;;4404772;32;20215;-79
2021/03/09 08:18:32;;;;;;;10.63;3.67;;;;;;;;;;4404241;32;20193;-79
2021/03/09 08:20:57;;;;;;;8.77;4.03;;;;;;;;;;4404464;32;20194;-80
2021/03/09 08:23:41;;;;;;;6.00;3.27;;;;;;;;;;4404580;32;20157;-77
2021/03/09 08:26:35;;;;;;;8.87;3.37;;;;;;;;;;4403550;32;20174;-80
2021/03/09 08:29:24;;;;;;;13.73;3.70;;;;;;;;;;4403659;32;20615;-80
2021/03/09 08:32:09;;;;;;;11.17;3.20;;;;;;;;;;4397734;32;20193;-80
2021/03/09 08:35:00;;;;;;;6.93;3.47;;;;;;;;;;4405377;32;20199;-79
2021/03/09 08:37:29;;;;;;;6.27;2.97;;;;;;;;;;4345684;33;20617;-78
2021/03/09 08:40:26;;;;;;;8.37;3.23;;;;;;;;;;4399149;32;20162;-79
2021/03/09 08:43:10;;;;;;;6.93;3.40;;;;;;;;;;4404059;32;20161;-79
2021/03/09 08:46:14;;;;;;;5.27;2.50;;;;;;;;;;4403509;32;20162;-81
2021/03/09 08:51:42;;;;;;;5.37;2.43;;;;;;;;;;4398885;32;20169;-80
2021/03/09 08:54:17;;;;;;;9.80;3.23;;;;;;;;;;4404757;32;20131;-80
2021/03/09 08:56:57;;;;;;;7.60;3.00;;;;;;;;;;4404977;32;20160;-81
2021/03/09 08:59:36;;;;;;;9.10;2.50;;;;;;;;;;4402967;32;20626;-82
2021/03/09 09:02:30;;;;;;;5.13;1.90;;;;;;;;;;4403491;32;20153;-81
2021/03/09 09:05:25;;;;;;;8.73;2.00;;;;;;;;;;4404529;32;20158;-80
2021/03/09 09:08:13;;;;;;;4.70;1.50;;;;;;;;;;4397724;32;20207;-81
2021/03/09 09:10:44;;;;;;;8.23;1.53;;;;;;;;;;4403065;32;20154;-80
2021/03/09 09:13:12;;;;;;;6.67;1.60;;;;;;;;;;4404910;32;20201;-80
2021/03/09 09:15:40;;;;;;;4.43;1.30;;;;;;;;;;4390536;32;20526;-81
2021/03/09 09:18:06;;;;;;;3.60;1.67;;;;;;;;;;4390799;32;20173;-80
2021/03/09 09:20:42;;;;;;;4.03;1.60;;;;;;;;;;4404527;32;20146;-80
2021/03/09 09:23:11;;;;;;;3.57;1.43;;;;;;;;;;4391074;32;20158;-80
2021/03/09 09:26:33;;;;;;;3.33;1.30;;;;;;;;;;4389636;32;20197;-81
2021/03/09 09:28:44;;;;;;;1.93;1.10;;;;;;;;;;4396495;32;20296;-80
2021/03/09 09:31:25;;;;;;;5.20;1.77;;;;;;;;;;4389514;32;20166;-80
2021/03/09 09:34:07;;;;;;;;;;;;;;;;;;;;;
2021/03/09 09:36:43;;;;;;;5.50;1.73;;;;;;;;;;4397801;32;20150;-82
2021/03/09 09:39:09;;;;;;;7.33;1.70;;;;;;;;;;4407759;32;20252;-81
2021/03/09 09:42:06;;;;;;;4.27;1.33;;;;;;;;;;4407255;32;20250;-81
2021/03/09 09:44:31;;;;;;;5.03;1.07;;;;;;;;;;4407460;32;20164;-80
2021/03/09 09:46:57;;;;;;;3.10;0.97;;;;;;;;;;4406809;32;20142;-79
2021/03/09 09:49:32;;;;;;;2.10;0.80;;;;;;;;;;4407637;32;20138;-81
2021/03/09 09:51:57;;;;;;;2.27;0.97;;;;;;;;;;4405641;32;20188;-81
2021/03/09 09:54:30;;;;;;;1.03;0.60;;;;;;;;;;4406102;32;20162;-80
2021/03/09 09:57:14;;;;;;;2.03;0.80;;;;;;;;;;4405910;32;20617;-80
2021/03/09 09:59:50;;;;;;;1.97;0.80;;;;;;;;;;4407124;32;20153;-80
2021/03/09 10:02:23;;;;;;;1.23;0.80;;;;;;;;;;4407819;32;20141;-80
2021/03/09 10:04:49;;;;;;;1.80;0.80;;;;;;;;;;4405447;32;20738;-80
2021/03/09 10:07:19;;;;;;;1.70;0.83;;;;;;;;;;4394107;32;20178;-80
2021/03/09 10:10:06;;;;;;;2.10;0.90;;;;;;;;;;4405102;32;20595;-80
2021/03/09 10:12:50;;;;;;;4.23;1.00;;;;;;;;;;4406205;32;20219;-81
2021/03/09 10:15:16;;;;;;;1.67;0.87;;;;;;;;;;4392654;32;20207;-81
2021/03/09 10:18:01;;;;;;;2.10;0.50;;;;;;;;;;4392677;32;20540;-80
2021/03/09 10:20:29;;;;;;;1.57;0.40;;;;;;;;;;4388675;32;20188;-81
2021/03/09 10:23:22;;;;;;;3.03;0.53;;;;;;;;;;4391543;32;20158;-80
2021/03/09 10:26:04;;;;;;;1.60;0.53;;;;;;;;;;4391206;32;20166;-80
2021/03/09 10:28:31;;;;;;;1.90;0.50;;;;;;;;;;4377882;32;20887;-81
2021/03/09 10:30:56;;;;;;;1.77;0.40;;;;;;;;;;4400342;32;20195;-81
2021/03/09 10:33:38;;;;;;;1.43;0.30;;;;;;;;;;4392715;32;20170;-80
2021/03/09 10:36:08;;;;;;;0.20;0.20;;;;;;;;;;4406419;32;20142;-80
2021/03/09 10:38:36;;;;;;;1.07;0.30;;;;;;;;;;4392617;32;20479;-81
2021/03/09 10:41:02;;;;;;;0.30;0.30;;;;;;;;;;4392462;32;20165;-81
2021/03/09 10:43:44;;;;;;;0.90;0.40;;;;;;;;;;4406913;32;20199;-80
2021/03/09 10:46:10;;;;;;;0.43;0.20;;;;;;;;;;4406107;32;20162;-81
2021/03/09 10:48:36;;;;;;;1.17;0.30;;;;;;;;;;4405847;32;20166;-80
2021/03/09 10:51:01;;;;;;;0.60;0.40;;;;;;;;;;4406311;32;20138;-78
2021/03/09 10:53:27;;;;;;;2.30;0.60;;;;;;;;;;4392646;32;20184;-80
2021/03/09 10:55:52;;;;;;;1.03;0.40;;;;;;;;;;4392262;32;20223;-79
2021/03/09 10:58:17;;;;;;;3.80;0.83;;;;;;;;;;4392297;32;20566;-80
2021/03/09 11:00:45;;;;;;;0.67;0.40;;;;;;;;;;4391811;32;20231;-80
2021/03/09 11:03:10;;;;;;;0.50;0.30;;;;;;;;;;4391791;32;20166;-78
2021/03/09 11:05:45;;;;;;;2.30;0.50;;;;;;;;;;4392644;32;20209;-80
2021/03/09 11:08:10;;;;;;;1.40;0.30;;;;;;;;;;4391862;32;20153;-80
2021/03/09 11:10:37;;;;;;;2.40;0.40;;;;;;;;;;4378016;32;20170;-79
2021/03/09 11:13:02;;;;;;;1.13;0.40;;;;;;;;;;4392157;32;20515;-79
2021/03/09 11:15:31;;;;;;;1.10;0.50;;;;;;;;;;4392178;32;20185;-80
2021/03/09 11:17:56;;;;;;;1.30;0.50;;;;;;;;;;4392102;32;20221;-81
2021/03/09 11:20:53;;;;;;;1.77;0.60;;;;;;;;;;4391795;32;20188;-79
2021/03/09 11:23:21;;;;;;;1.30;0.47;;;;;;;;;;4392191;32;20502;-80
2021/03/09 11:25:46;;;;;;;1.03;0.60;;;;;;;;;;4405816;32;20194;-79
2021/03/09 11:28:14;;;;;;;2.80;0.60;;;;;;;;;;4392315;32;20476;-80
2021/03/09 11:33:25;;;;;;;1.67;0.53;;;;;;;;;;4400393;32;20162;-81
2021/03/09 11:35:51;;;;;;;2.83;0.60;;;;;;;;;;4401761;32;20201;-80
2021/03/09 11:38:17;;;;;;;3.57;0.73;;;;;;;;;;4392746;32;20177;-78
2021/03/09 11:41:01;;;;;;;;;;;;;;;;;;;;;
2021/03/09 11:43:35;;;;;;;2.23;0.70;;;;;;;;;;4406298;32;20766;-81
2021/03/09 11:46:04;;;;;;;2.73;0.80;;;;;;;;;;4391491;32;20158;-80
2021/03/09 11:48:49;;;;;;;;;;;;;;;;;;;;;
2021/03/09 11:51:15;;;;;;;6.23;0.73;;;;;;;;;;4375312;32;20138;-78
2021/03/09 11:53:41;;;;;;;1.93;0.80;;;;;;;;;;4396710;32;20560;-78
2021/03/09 11:56:06;;;;;;;1.77;0.63;;;;;;;;;;4391165;32;20663;-77
2021/03/09 11:58:32;;;;;;;2.67;0.60;;;;;;;;;;4390957;32;20174;-76
2021/03/09 12:00:59;;;;;;;1.30;0.50;;;;;;;;;;4404485;32;20138;-80
2021/03/09 12:03:34;;;;;;;5.20;0.60;;;;;;;;;;4391454;32;20181;-80
2021/03/09 12:06:00;;;;;;;1.23;0.67;;;;;;;;;;4391194;32;20185;-78
2021/03/09 12:08:25;;;;;;;2.70;0.67;;;;;;;;;;4391109;32;20162;-79
2021/03/09 12:10:53;;;;;;;2.37;0.60;;;;;;;;;;4392025;32;20671;-78
2021/03/09 12:13:22;;;;;;;3.00;0.70;;;;;;;;;;4405394;32;20169;-80
2021/03/09 12:15:48;;;;;;;1.60;0.70;;;;;;;;;;4391220;32;20174;-79
2021/03/09 12:18:16;;;;;;;2.03;0.70;;;;;;;;;;4378657;32;20166;-78
2021/03/09 12:20:42;;;;;;;1.80;0.60;;;;;;;;;;4391034;32;20591;-79
2021/03/09 12:23:07;;;;;;;3.60;0.80;;;;;;;;;;4390946;32;20208;-77
2021/03/09 12:25:36;;;;;;;1.77;0.60;;;;;;;;;;4378316;32;20171;-80
2021/03/09 12:28:04;;;;;;;1.40;0.60;;;;;;;;;;4375732;32;20212;-80
2021/03/09 12:30:32;;;;;;;3.23;0.70;;;;;;;;;;4375541;32;20528;-79
2021/03/09 12:32:57;;;;;;;0.80;0.70;;;;;;;;;;4375975;32;20162;-77
2021/03/09 12:35:28;;;;;;;2.07;0.83;;;;;;;;;;4374697;32;20170;-81
2021/03/09 12:37:53;;;;;;;3.00;0.90;;;;;;;;;;4375683;32;20221;-81
2021/03/09 12:40:22;;;;;;;2.20;0.60;;;;;;;;;;4375898;32;20198;-80
2021/03/09 12:42:47;;;;;;;2.63;0.70;;;;;;;;;;4376130;32;20184;-80
2021/03/09 12:45:17;;;;;;;5.53;0.90;;;;;;;;;;4375832;32;20162;-79
2021/03/09 12:47:42;;;;;;;5.80;1.10;;;;;;;;;;4395017;32;20178;-76
2021/03/09 12:50:14;;;;;;;3.53;0.70;;;;;;;;;;4391011;32;20229;-79
2021/03/09 12:52:41;;;;;;;2.30;0.80;;;;;;;;;;4390911;32;20277;-80
2021/03/09 12:55:15;;;;;;;3.30;0.67;;;;;;;;;;4390427;32;20184;-79
2021/03/09 12:57:42;;;;;;;4.00;0.90;;;;;;;;;;4387085;32;20172;-80
2021/03/09 13:00:08;;;;;;;2.03;0.70;;;;;;;;;;4390441;32;20182;-78
2021/03/09 13:02:34;;;;;;;4.73;1.00;;;;;;;;;;4390996;32;20568;-80
2021/03/09 13:05:29;;;;;;;3.90;0.90;;;;;;;;;;4390308;32;20215;-78
2021/03/09 13:07:59;;;;;;;1.77;0.70;;;;;;;;;;4376700;32;20197;-80
2021/03/09 13:10:25;;;;;;;3.53;1.00;;;;;;;;;;4405089;32;20126;-80
2021/03/09 13:12:53;;;;;;;3.20;0.90;;;;;;;;;;4406783;32;20559;-81
2021/03/09 13:15:34;;;;;;;3.97;1.00;;;;;;;;;;4408028;32;20195;-80
2021/03/09 13:18:14;;;;;;;4.73;0.97;;;;;;;;;;4393523;32;20252;-80
2021/03/09 13:20:39;;;;;;;2.33;1.10;;;;;;;;;;4393609;32;20201;-76
2021/03/09 13:23:07;;;;;;;3.70;1.20;;;;;;;;;;4393908;32;20540;-80
2021/03/09 13:25:40;;;;;;;1.63;1.10;;;;;;;;;;4377045;32;20251;-79
2021/03/09 13:28:27;;;;;;;5.90;1.60;;;;;;;;;;4389617;32;20189;-79
2021/03/09 13:30:54;;;;;;;3.77;1.20;;;;;;;;;;4389912;32;20166;-80
2021/03/09 13:33:30;;;;;;;2.07;1.30;;;;;;;;;;4390593;32;20237;-79
2021/03/09 13:36:03;;;;;;;3.13;1.33;;;;;;;;;;4392471;32;20134;-79
2021/03/09 13:38:28;;;;;;;5.10;1.93;;;;;;;;;;4391871;32;20142;-81
2021/03/09 13:40:53;;;;;;;8.30;1.30;;;;;;;;;;4392334;32;20204;-80
2021/03/09 13:43:19;;;;;;;2.87;1.10;;;;;;;;;;4391594;32;20209;-78
2021/03/09 13:45:46;;;;;;;2.83;1.03;;;;;;;;;;4390923;32;20209;-81
2021/03/09 13:48:15;;;;;;;1.60;1.07;;;;;;;;;;4389888;32;20204;-79
2021/03/09 13:50:48;;;;;;;3.80;1.30;;;;;;;;;;4408381;32;20195;-80
2021/03/09 13:53:44;;;;;;;1.43;0.80;;;;;;;;;;4395487;32;20161;-78
2021/03/09 13:56:08;;;;;;;1.70;1.00;;;;;;;;;;4421959;32;20173;-80
2021/03/09 13:58:34;;;;;;;4.03;1.20;;;;;;;;;;4408364;32;20630;-78
2021/03/09 14:01:09;;;;;;;2.33;1.40;;;;;;;;;;4408562;32;20223;-79
2021/03/09 14:03:43;;;;;;;2.73;1.50;;;;;;;;;;4422870;32;20596;-80
2021/03/09 14:06:18;;;;;;;5.13;1.33;;;;;;;;;;4408322;32;20178;-80
2021/03/09 14:08:46;;;;;;;3.47;1.50;;;;;;;;;;4422750;32;20148;-78
2021/03/09 14:11:16;;;;;;;5.20;1.97;;;;;;;;;;4399149;32;20182;-80
2021/03/09 14:13:45;;;;;;;7.47;1.80;;;;;;;;;;4403202;32;20155;-80
2021/03/09 14:16:16;;;;;;;2.43;1.50;;;;;;;;;;4392264;32;20162;-80
2021/03/09 14:18:42;;;;;;;2.43;1.60;;;;;;;;;;4392824;32;20138;-81
2021/03/09 14:21:17;;;;;;;1.97;1.30;;;;;;;;;;4392591;32;20207;-79
2021/03/09 14:24:27;;;;;;;2.00;1.50;;;;;;;;;;4391826;32;20158;-79
2021/03/09 14:26:33;;;;;;;5.73;1.50;;;;;;;;;;4401842;32;20532;-79
2021/03/09 14:28:59;;;;;;;3.87;1.37;;;;;;;;;;4406631;32;20185;-79
2021/03/09 14:31:25;;;;;;;2.83;1.03;;;;;;;;;;4407256;32;20141;-76
2021/03/09 14:34:03;;;;;;;4.90;1.47;;;;;;;;;;4392834;32;20249;-79
2021/03/09 14:36:28;;;;;;;3.20;1.00;;;;;;;;;;4393112;32;20192;-79
2021/03/09 14:38:53;;;;;;;2.60;1.30;;;;;;;;;;4392463;32;20166;-80
2021/03/09 14:41:25;;;;;;;5.17;1.47;;;;;;;;;;4406904;32;20217;-79
2021/03/09 14:44:03;;;;;;;5.20;1.83;;;;;;;;;;4392572;32;20626;-80
2021/03/09 14:46:28;;;;;;;7.83;2.23;;;;;;;;;;4392573;32;20221;-79
2021/03/09 14:48:57;;;;;;;6.63;2.37;;;;;;;;;;4389912;32;20182;-80
2021/03/09 14:51:37;;;;;;;4.63;2.70;;;;;;;;;;4391311;32;20142;-79
2021/03/09 14:54:04;;;;;;;6.90;3.20;;;;;;;;;;4391309;32;20153;-81
2021/03/09 14:56:31;;;;;;;5.23;2.80;;;;;;;;;;4389855;32;20238;-79
2021/03/09 14:58:59;;;;;;;6.33;3.40;;;;;;;;;;4389592;32;20170;-79
2021/03/09 15:01:24;;;;;;;7.47;2.77;;;;;;;;;;4391998;32;20449;-75
2021/03/09 15:04:03;;;;;;;9.43;3.50;;;;;;;;;;4391188;32;20157;-80
2021/03/09 15:06:28;;;;;;;10.43;3.83;;;;;;;;;;4391138;32;20531;-81
2021/03/09 15:08:54;;;;;;;29.40;6.13;;;;;;;;;;4364511;32;20221;-80
2021/03/09 15:11:23;;;;;;;7.33;3.43;;;;;;;;;;4376422;32;20642;-80
2021/03/09 15:13:51;;;;;;;8.40;3.90;;;;;;;;;;4390759;32;20166;-79
2021/03/09 15:16:19;;;;;;;6.30;3.60;;;;;;;;;;4376725;32;20196;-80
2021/03/09 15:18:44;;;;;;;6.13;3.80;;;;;;;;;;4377022;32;20193;-78
2021/03/09 15:21:10;;;;;;;14.13;5.07;;;;;;;;;;4391044;32;20138;-81
2021/03/09 15:23:37;;;;;;;6.93;4.23;;;;;;;;;;4391201;32;20134;-81
2021/03/09 15:26:04;;;;;;;11.33;4.40;;;;;;;;;;4377293;32;20238;-78
2021/03/09 15:28:53;;;;;;;8.33;4.30;;;;;;;;;;4391399;32;20142;-80
2021/03/09 15:31:19;;;;;;;10.43;4.20;;;;;;;;;;4391286;32;20192;-81
2021/03/09 15:33:45;;;;;;;14.57;4.67;;;;;;;;;;4364121;32;20588;-81
2021/03/09 15:36:20;;;;;;;6.97;4.20;;;;;;;;;;4390431;32;20158;-79
2021/03/09 15:38:47;;;;;;;8.40;4.53;;;;;;;;;;4390413;32;20154;-78
2021/03/09 15:41:15;;;;;;;8.60;4.63;;;;;;;;;;4391221;32;20146;-81
2021/03/09 15:43:53;;;;;;;11.20;4.83;;;;;;;;;;4390575;32;20224;-79
2021/03/09 15:46:26;;;;;;;8.57;4.47;;;;;;;;;;4390737;32;20150;-79
2021/03/09 15:48:52;;;;;;;8.13;4.60;;;;;;;;;;4403769;32;20158;-78
2021/03/09 15:51:17;;;;;;;14.53;4.90;;;;;;;;;;4405546;32;20142;-80
2021/03/09 15:53:42;;;;;;;9.50;5.40;;;;;;;;;;4405760;32;20548;-79
2021/03/09 15:56:08;;;;;;;11.03;4.70;;;;;;;;;;4405420;32;20150;-78
2021/03/09 15:58:37;;;;;;;15.70;6.10;;;;;;;;;;4391170;32;20178;-79